createdAt,value
2023-09-13T00:03:07.051Z,18.38
2023-09-13T00:07:10.217Z,18.33
2023-09-13T00:11:13.450Z,18.34
2023-09-13T00:15:16.564Z,18.33
2023-09-13T00:19:20.914Z,18.29
2023-09-13T00:23:24.081Z,18.31
2023-09-13T00:27:27.046Z,18.29
2023-09-13T00:31:30.191Z,18.30
2023-09-13T00:35:35.147Z,18.29
2023-09-13T00:39:38.127Z,18.32
2023-09-13T00:43:41.414Z,18.35
2023-09-13T00:47:45.095Z,18.35
2023-09-13T00:51:49.875Z,18.35
2023-09-13T00:55:54.337Z,18.37
2023-09-13T00:59:57.401Z,18.37
2023-09-13T01:04:00.908Z,18.38
2023-09-13T01:08:05.762Z,18.34
2023-09-13T01:12:08.849Z,18.36
2023-09-13T01:16:15.716Z,18.36
2023-09-13T01:20:20.793Z,18.36
2023-09-13T01:24:41.024Z,18.35
2023-09-13T01:28:47.802Z,18.40
2023-09-13T01:32:53.057Z,18.41
2023-09-13T01:36:57.786Z,18.45
2023-09-13T01:41:05.490Z,18.48
2023-09-13T01:45:11.820Z,18.50
2023-09-13T01:49:15.785Z,18.53
2023-09-13T01:53:19.116Z,18.55
2023-09-13T01:57:22.014Z,18.57
2023-09-13T02:01:26.608Z,18.52
2023-09-13T02:05:29.727Z,18.54
2023-09-13T02:09:33.039Z,18.55
2023-09-13T02:13:36.272Z,18.53
2023-09-13T02:17:40.831Z,18.54
2023-09-13T02:21:43.853Z,18.53
2023-09-13T02:25:47.033Z,18.60
2023-09-13T02:29:50.008Z,18.55
2023-09-13T02:33:54.850Z,18.58
2023-09-13T02:37:58.732Z,18.61
2023-09-13T02:42:01.875Z,18.59
2023-09-13T02:46:04.978Z,18.56
2023-09-13T02:50:09.905Z,18.63
2023-09-13T02:54:12.906Z,18.65
2023-09-13T02:58:15.935Z,18.61
2023-09-13T03:02:20.069Z,18.64
2023-09-13T03:06:24.748Z,18.64
2023-09-13T03:10:28.230Z,18.63
2023-09-13T03:14:31.667Z,18.57
2023-09-13T03:18:35.123Z,18.62
2023-09-13T03:22:40.026Z,18.60
2023-09-13T03:26:43.195Z,18.59
2023-09-13T03:30:46.751Z,18.63
2023-09-13T03:34:49.820Z,18.65
2023-09-13T03:38:54.505Z,18.63
2023-09-13T03:42:59.092Z,18.59
2023-09-13T03:47:02.493Z,18.51
2023-09-13T03:51:06.078Z,18.46
2023-09-13T03:55:10.945Z,18.42
2023-09-13T03:59:14.308Z,18.34
2023-09-13T04:03:18.330Z,18.26
2023-09-13T04:07:21.406Z,18.24
2023-09-13T04:11:27.361Z,18.22
2023-09-13T04:15:30.404Z,18.23
2023-09-13T04:19:34.224Z,18.22
2023-09-13T04:23:37.290Z,18.15
2023-09-13T04:27:44.348Z,18.10
2023-09-13T04:31:49.637Z,18.02
2023-09-13T04:35:54.379Z,18.04
2023-09-13T04:39:57.481Z,18.00
2023-09-13T04:44:03.182Z,18.00
2023-09-13T04:48:07.180Z,17.98
2023-09-13T04:52:11.786Z,17.98
2023-09-13T04:56:15.609Z,17.96
2023-09-13T05:00:25.308Z,17.98
2023-09-13T05:04:28.498Z,18.00
2023-09-13T05:08:31.507Z,18.01
2023-09-13T05:12:34.575Z,17.97
2023-09-13T05:16:38.947Z,18.05
2023-09-13T05:20:41.908Z,18.03
2023-09-13T05:24:44.933Z,18.04
2023-09-13T05:28:48.205Z,18.00
2023-09-13T05:32:52.621Z,18.02
2023-09-13T05:36:55.976Z,18.00
2023-09-13T05:40:59.032Z,17.96
2023-09-13T05:45:01.988Z,17.94
2023-09-13T05:49:06.865Z,17.89
2023-09-13T05:53:09.868Z,17.89
2023-09-13T05:57:12.847Z,17.86
2023-09-13T06:01:17.247Z,17.87
2023-09-13T06:05:22.373Z,17.86
2023-09-13T06:09:25.508Z,17.88
2023-09-13T06:13:28.566Z,17.89
2023-09-13T06:17:31.888Z,17.88
2023-09-13T06:21:36.577Z,17.90
2023-09-13T06:25:41.532Z,17.87
2023-09-13T06:29:44.746Z,17.86
2023-09-13T06:33:48.513Z,17.84
2023-09-13T06:37:53.703Z,17.83
2023-09-13T06:41:57.401Z,17.89
2023-09-13T06:50:07.099Z,18.21
2023-09-13T06:54:14.230Z,18.24
2023-09-13T06:58:22.064Z,18.38
2023-09-13T07:06:32.052Z,18.75
2023-09-13T07:10:37.060Z,18.77
2023-09-13T07:14:40.197Z,18.73
2023-09-13T07:18:43.515Z,18.85
2023-09-13T07:22:46.776Z,18.92
2023-09-13T07:26:51.144Z,18.94
2023-09-13T07:30:54.449Z,19.09
2023-09-13T07:34:57.704Z,19.18
2023-09-13T07:39:01.585Z,19.41
2023-09-13T07:43:07.317Z,20.04
2023-09-13T07:47:10.560Z,19.84
2023-09-13T07:51:13.769Z,19.86
2023-09-13T07:55:16.842Z,19.68
2023-09-13T07:59:21.837Z,19.44
2023-09-13T08:03:26.110Z,19.29
2023-09-13T08:07:29.555Z,19.18
2023-09-13T08:11:32.540Z,19.11
2023-09-13T08:15:47.317Z,19.07
2023-09-13T08:19:52.228Z,19.12
2023-09-13T08:23:55.224Z,19.05
2023-09-13T08:27:58.598Z,19.08
2023-09-13T08:32:04.147Z,19.19
2023-09-13T08:36:08.286Z,19.27
2023-09-13T08:40:12.401Z,19.55
2023-09-13T08:44:15.867Z,19.87
2023-09-13T08:48:20.794Z,19.87
2023-09-13T08:52:24.073Z,19.98
2023-09-13T08:56:27.294Z,20.62
2023-09-13T09:00:31.357Z,21.10
2023-09-13T09:04:35.930Z,21.45
2023-09-13T09:08:41.530Z,20.87
2023-09-13T09:12:45.659Z,20.58
2023-09-13T09:16:50.888Z,20.55
2023-09-13T09:20:56.428Z,20.53
2023-09-13T09:24:59.876Z,20.78
2023-09-13T09:29:11.760Z,20.54
2023-09-13T09:33:15.076Z,20.58
2023-09-13T09:37:19.489Z,21.01
2023-09-13T09:41:32.376Z,22.30
2023-09-13T09:45:35.435Z,21.86
2023-09-13T09:49:38.990Z,21.32
2023-09-13T09:53:43.383Z,21.11
2023-09-13T09:57:47.368Z,21.03
2023-09-13T10:01:58.214Z,20.85
2023-09-13T10:06:04.195Z,20.59
2023-09-13T10:10:10.709Z,20.26
2023-09-13T10:14:26.456Z,20.19
2023-09-13T10:18:32.312Z,20.31
2023-09-13T10:22:37.372Z,20.20
2023-09-13T10:26:42.805Z,20.05
2023-09-13T10:30:50.961Z,19.66
2023-09-13T10:34:55.166Z,17.62
2023-09-13T10:39:05.703Z,17.26
2023-09-13T10:43:10.803Z,16.60
2023-09-13T10:47:14.087Z,16.39
2023-09-13T10:51:17.924Z,16.31
2023-09-13T10:55:21.376Z,16.14
2023-09-13T10:59:26.708Z,16.16
2023-09-13T11:03:30.234Z,16.13
2023-09-13T11:07:34.108Z,16.20
2023-09-13T11:11:37.696Z,16.25
2023-09-13T11:15:51.124Z,16.21
2023-09-13T11:19:54.327Z,16.29
2023-09-13T11:24:03.782Z,16.41
2023-09-13T11:28:08.580Z,16.49
2023-09-13T11:32:19.725Z,16.68
2023-09-13T11:36:25.249Z,17.00
2023-09-13T11:40:29.417Z,16.95
2023-09-13T11:44:34.495Z,17.26
2023-09-13T11:48:56.715Z,17.19
2023-09-13T11:53:10.924Z,17.28
2023-09-13T11:57:22.906Z,17.66
2023-09-13T12:01:29.857Z,17.34
2023-09-13T12:05:53.252Z,17.74
2023-09-13T12:10:00.536Z,17.59
2023-09-13T12:14:12.836Z,17.54
2023-09-13T12:18:20.826Z,17.66
2023-09-13T12:22:25.240Z,17.64
2023-09-13T12:26:28.805Z,17.98
2023-09-13T12:30:31.920Z,17.88
2023-09-13T12:34:35.060Z,17.69
2023-09-13T12:38:47.427Z,17.87
2023-09-13T12:42:50.456Z,17.91
2023-09-13T12:46:54.157Z,17.91
2023-09-13T12:50:57.516Z,18.19
2023-09-13T12:55:05.448Z,18.05
2023-09-13T12:59:08.545Z,18.02
2023-09-13T13:03:11.734Z,18.33
2023-09-13T13:07:22.208Z,18.65
2023-09-13T13:11:26.851Z,19.15
2023-09-13T13:15:34.311Z,19.07
2023-09-13T13:23:46.131Z,19.07
2023-09-13T13:27:50.806Z,19.28
2023-09-13T13:31:54.003Z,19.58
2023-09-13T13:35:58.118Z,20.96
2023-09-13T13:40:01.210Z,20.52
2023-09-13T13:44:05.691Z,20.67
2023-09-13T13:48:08.752Z,20.01
2023-09-13T13:52:11.763Z,20.13
2023-09-13T13:56:14.770Z,20.28
2023-09-13T14:00:19.871Z,21.40
2023-09-13T14:04:22.985Z,21.87
2023-09-13T14:08:26.550Z,22.60
2023-09-13T14:12:29.641Z,22.25
2023-09-13T14:16:34.283Z,20.79
2023-09-13T14:20:42.422Z,19.90
2023-09-13T14:24:45.493Z,19.75
2023-09-13T14:28:48.473Z,19.47
2023-09-13T14:32:53.119Z,19.43
2023-09-13T14:36:56.143Z,19.75
2023-09-13T14:40:59.344Z,19.80
2023-09-13T14:45:02.311Z,20.05
2023-09-13T14:49:06.668Z,20.05
2023-09-13T14:53:10.271Z,20.34
2023-09-13T14:57:13.306Z,19.53
2023-09-13T15:01:16.407Z,19.34
2023-09-13T15:05:21.265Z,19.34
2023-09-13T15:09:24.465Z,19.18
2023-09-13T15:13:27.518Z,19.07
2023-09-13T15:17:31.564Z,19.03
2023-09-13T15:21:36.330Z,18.96
2023-09-13T15:25:40.022Z,18.80
2023-09-13T15:29:43.797Z,18.71
2023-09-13T15:33:46.852Z,18.77
2023-09-13T15:37:52.943Z,18.94
2023-09-13T15:41:57.805Z,18.97
2023-09-13T15:46:01.127Z,19.21
2023-09-13T15:50:04.383Z,20.25
2023-09-13T15:54:08.815Z,20.32
2023-09-13T15:58:11.787Z,20.16
2023-09-13T16:02:14.950Z,19.58
2023-09-13T16:06:17.998Z,19.33
2023-09-13T16:10:23.822Z,19.49
2023-09-13T16:14:34.634Z,19.61
2023-09-13T16:18:38.315Z,19.58
2023-09-13T16:22:41.465Z,19.37
2023-09-13T16:26:45.772Z,19.26
2023-09-13T16:30:49.052Z,19.23
2023-09-13T16:34:52.115Z,18.93
2023-09-13T16:38:55.086Z,18.95
2023-09-13T16:42:59.522Z,18.88
2023-09-13T16:47:02.636Z,18.57
2023-09-13T16:51:05.646Z,18.37
2023-09-13T16:55:09.117Z,18.36
2023-09-13T16:59:14.528Z,18.32
2023-09-13T17:03:17.637Z,18.21
2023-09-13T17:07:20.907Z,18.07
2023-09-13T17:11:24.396Z,18.11
2023-09-13T17:15:28.758Z,18.13
2023-09-13T17:19:32.072Z,18.10
2023-09-13T17:23:35.001Z,18.16
2023-09-13T17:27:38.064Z,17.92
2023-09-13T17:31:42.447Z,17.75
2023-09-13T17:35:45.554Z,17.65
2023-09-13T17:39:48.557Z,17.59
2023-09-13T17:43:51.624Z,17.49
2023-09-13T17:47:56.631Z,17.34
2023-09-13T17:51:59.728Z,17.24
2023-09-13T17:56:04.357Z,17.16
2023-09-13T18:00:07.742Z,17.06
2023-09-13T18:04:12.245Z,17.02
2023-09-13T18:08:15.640Z,16.98
2023-09-13T18:12:18.644Z,16.90
2023-09-13T18:16:21.600Z,16.88
2023-09-13T18:20:28.489Z,16.85
2023-09-13T18:24:38.780Z,16.78
2023-09-13T18:28:42.472Z,16.77
2023-09-13T18:32:45.571Z,16.75
2023-09-13T18:36:50.050Z,16.78
2023-09-13T18:40:53.370Z,16.76
2023-09-13T18:44:56.962Z,16.74
2023-09-13T18:49:00.749Z,16.69
2023-09-13T18:53:05.844Z,16.69
2023-09-13T18:57:11.156Z,16.59
2023-09-13T19:01:14.344Z,16.55
2023-09-13T19:05:17.600Z,16.61
2023-09-13T19:09:22.373Z,16.55
2023-09-13T19:13:25.426Z,16.51
2023-09-13T19:17:28.628Z,16.44
2023-09-13T19:21:32.878Z,16.34
2023-09-13T19:25:37.342Z,16.23
2023-09-13T19:29:40.606Z,16.11
2023-09-13T19:33:43.574Z,16.04
2023-09-13T19:37:46.637Z,15.95
2023-09-13T19:41:51.330Z,15.87
2023-09-13T19:45:55.525Z,15.72
2023-09-13T19:49:58.507Z,15.58
2023-09-13T19:54:01.486Z,15.38
2023-09-13T19:58:07.035Z,15.31
2023-09-13T20:02:10.093Z,15.23
2023-09-13T20:06:14.070Z,15.09
2023-09-13T20:10:17.160Z,14.99
2023-09-13T20:14:21.384Z,14.92
2023-09-13T20:18:24.419Z,14.81
2023-09-13T20:22:27.340Z,14.67
2023-09-13T20:26:30.398Z,14.60
2023-09-13T20:30:34.779Z,14.47
2023-09-13T20:34:37.825Z,14.40
2023-09-13T20:38:40.830Z,14.40
2023-09-13T20:42:43.893Z,14.36
2023-09-13T20:46:48.801Z,14.42
2023-09-13T20:50:52.283Z,14.38
2023-09-13T20:54:55.389Z,14.29
2023-09-13T20:58:58.450Z,14.18
2023-09-13T21:03:03.369Z,14.09
2023-09-13T21:07:08.557Z,14.11
2023-09-13T21:11:11.647Z,13.94
2023-09-13T21:15:14.876Z,13.92
2023-09-13T21:19:20.797Z,13.87
2023-09-13T21:23:23.908Z,13.82
2023-09-13T21:27:27.188Z,13.71
2023-09-13T21:31:30.239Z,13.75
2023-09-13T21:35:34.615Z,13.79
2023-09-13T21:39:37.674Z,13.75
2023-09-13T21:43:40.858Z,13.74
2023-09-13T21:47:43.850Z,13.67
2023-09-13T21:51:48.158Z,13.56
2023-09-13T21:55:51.118Z,13.52
2023-09-13T21:59:54.113Z,13.51
2023-09-13T22:03:57.234Z,13.41
2023-09-13T22:08:02.341Z,13.33
2023-09-13T22:12:05.681Z,13.24
2023-09-13T22:16:10.141Z,13.26
2023-09-13T22:20:13.497Z,13.20
2023-09-13T22:24:17.741Z,13.18
2023-09-13T22:28:20.726Z,13.07
2023-09-13T22:32:23.783Z,13.03
2023-09-13T22:36:26.782Z,12.90
2023-09-13T22:40:31.039Z,12.95
2023-09-13T22:44:34.158Z,12.84
2023-09-13T22:48:37.150Z,12.70
2023-09-13T22:52:40.161Z,12.72
2023-09-13T22:56:44.445Z,12.70
2023-09-13T23:00:47.478Z,12.66
2023-09-13T23:04:50.432Z,12.59
2023-09-13T23:08:53.665Z,12.51
2023-09-13T23:13:00.837Z,12.50
2023-09-13T23:17:04.123Z,12.54
2023-09-13T23:21:07.392Z,12.53
2023-09-13T23:25:10.859Z,12.55
2023-09-13T23:29:15.268Z,12.51
2023-09-13T23:33:18.241Z,12.44
2023-09-13T23:37:23.211Z,12.41
2023-09-13T23:41:26.186Z,12.38
2023-09-13T23:45:31.149Z,12.35
2023-09-13T23:49:34.791Z,12.27
2023-09-13T23:53:38.269Z,12.17
2023-09-13T23:57:42.701Z,12.20
